Eastpoint, FL (32328)

1:25 AM EDT on July 30, 2015 (GMT -0400)
Seafood Workers Task Force Apalachicola Office | | Change Station
CLOSE
Current Station
Personal Weather Station
Location: Apalachicola, FL
Elevation: 43 ft
Nearby Weather Stations

Elev 43 ft 29.73 °N, 85.00 °W | Updated 7 minutes ago

Partly Cloudy
Partly Cloudy
78.6 °F
Feels Like 82 °F
N
0.0
Wind Variable Wind from NW

Today
High -- | Low -- °F
--% Chance of Precip.
Yesterday
High -- | Low -- °F
Precip. -- in
6:57 AM 8:34 PM
Waxing Gibbous, 98% visible
Pressure 29.98 in
Visibility 10.0 miles
Clouds Scattered Clouds 4400 ft
Heat Index 82 °F
Dew Point 78 °F
Humidity 98%
Rainfall 0.00 in
Snow Depth Not available.
UV 0 out of 12
Pollen 3.30 out of 12
Air Quality Not available.
Flu Activity Not available.
METAR KAAF 300453Z AUTO 29005KT 10SM SCT044 28/24 A2998 RMK AO2 SLP151 T02780244 403780267

More Conditions Fewer Conditions

Pressure 29.98 in
Visibility 10.0 miles
Clouds Scattered Clouds 4400 ft
Heat Index 82 °F
Dew Point 78 °F
Humidity 98%
Rainfall 0.00 in
Snow Depth Not available.
UV 0 out of 12
Pollen 3.30 out of 12
Air Quality Not available.
Flu Activity Not available.
METAR KAAF 300453Z AUTO 29005KT 10SM SCT044 28/24 A2998 RMK AO2 SLP151 T02780244 403780267

More Conditions Fewer Conditions

10-Day Weather Forecast

×

Almanac

Astronomy

Jul. 30, 2015 Rise Set
Actual Time
Civil Twilight
Nautical Twilight
Astronomical Twilight
Moon
Length of Visible Light
Length of Day
Tomorrow will be .
, % of the Moon is Illuminated

Today's Extremes

State Highs State Lows

Community

WunderPhotos

Upload Photos

1,842,312 photos uploaded!

WunderBlogs® & News

Nearby

Air Quality

  Air Quality AQ Index Pollutant
Not available.

Snow Depth

Station Depth Elevation

Earthquake Activity

City Distance Mag. Time & Date
Minimum magnitude displayed is 2.5.

Coastal Water Temperatures

Place Temperature

Stations

Nearby Weather Stations

Station Location Temp. Windchill Dew Point Humidity Wind Precip. Elev Updated Type